createdAt,value
2022-09-05T00:02:41.870Z,2.13
2022-09-05T00:05:18.488Z,2.10
2022-09-05T00:08:12.528Z,1.95
2022-09-05T00:11:42.025Z,2.10
2022-09-05T00:13:53.423Z,2.70
2022-09-05T00:16:30.257Z,1.90
2022-09-05T00:22:51.291Z,1.85
2022-09-05T00:24:33.159Z,2.50
2022-09-05T00:25:41.467Z,1.95
2022-09-05T00:28:42.705Z,1.85
2022-09-05T00:31:55.020Z,1.88
2022-09-05T00:34:47.466Z,2.10
2022-09-05T00:37:42.700Z,2.20
2022-09-05T00:40:21.378Z,2.10
2022-09-05T00:42:53.832Z,2.10
2022-09-05T00:45:43.633Z,2.08
2022-09-05T00:48:21.348Z,2.67
2022-09-05T00:51:00.296Z,2.65
2022-09-05T00:53:39.356Z,2.10
2022-09-05T00:56:37.020Z,2.25
2022-09-05T00:59:58.472Z,2.35
2022-09-05T01:02:40.227Z,1.92
2022-09-05T01:05:38.418Z,1.88
2022-09-05T01:08:29.423Z,2.30
2022-09-05T01:11:01.994Z,2.22
2022-09-05T01:13:54.142Z,2.08
2022-09-05T01:16:31.409Z,2.20
2022-09-05T01:19:16.104Z,2.42
2022-09-05T01:22:04.602Z,2.40
2022-09-05T01:24:53.097Z,2.30
2022-09-05T01:28:06.782Z,2.38
2022-09-05T01:30:37.740Z,2.20
2022-09-05T01:33:19.978Z,2.50
2022-09-05T01:36:03.869Z,2.40
2022-09-05T01:39:13.230Z,2.63
2022-09-05T01:41:57.973Z,2.40
2022-09-05T01:44:41.281Z,2.65
2022-09-05T01:47:29.342Z,2.45
2022-09-05T01:50:17.128Z,2.50
2022-09-05T01:53:26.030Z,2.40
2022-09-05T01:56:24.569Z,2.13
2022-09-05T01:59:10.146Z,2.45
2022-09-05T02:01:45.749Z,2.25
2022-09-05T02:04:54.525Z,2.08
2022-09-05T02:07:31.114Z,2.00
2022-09-05T02:10:25.703Z,2.08
2022-09-05T02:13:29.874Z,2.20
2022-09-05T02:16:23.645Z,2.83
2022-09-05T02:19:15.000Z,2.30
2022-09-05T02:22:07.705Z,2.50
2022-09-05T02:24:36.736Z,2.10
2022-09-05T02:28:03.595Z,2.38
2022-09-05T02:30:17.003Z,1.92
2022-09-05T02:33:09.303Z,2.78
2022-09-05T02:35:35.779Z,2.75
2022-09-05T02:40:29.849Z,2.50
2022-09-05T02:45:09.270Z,2.53
2022-09-05T02:45:21.829Z,2.67
2022-09-05T02:47:25.707Z,2.33
2022-09-05T02:53:15.914Z,2.25
2022-09-05T02:57:29.970Z,2.45
2022-09-05T02:57:40.446Z,2.45
2022-09-05T02:59:50.409Z,2.00
2022-09-05T03:02:47.734Z,2.03
2022-09-05T03:05:52.179Z,2.65
2022-09-05T03:08:18.628Z,2.50
2022-09-05T03:14:21.171Z,2.20
2022-09-05T03:17:03.074Z,2.20
2022-09-05T03:20:06.843Z,2.30
2022-09-05T03:23:10.825Z,2.50
2022-09-05T03:25:52.332Z,2.45
2022-09-05T03:29:11.520Z,3.15
2022-09-05T03:31:50.084Z,3.63
2022-09-05T03:34:22.688Z,2.38
2022-09-05T03:37:26.835Z,3.13
2022-09-05T03:40:18.846Z,3.05
2022-09-05T03:43:37.904Z,2.42
2022-09-05T03:46:26.047Z,2.33
2022-09-05T03:49:27.218Z,2.53
2022-09-05T03:57:08.398Z,2.80
2022-09-05T03:57:11.363Z,2.22
2022-09-05T03:58:41.995Z,2.47
2022-09-05T04:04:31.779Z,2.40
2022-09-05T04:08:08.621Z,2.20
2022-09-05T04:08:34.269Z,2.58
2022-09-05T04:13:29.493Z,2.10
2022-09-05T04:16:15.845Z,2.53
2022-09-05T04:19:01.421Z,2.40
2022-09-05T04:21:32.550Z,2.85
2022-09-05T04:24:14.382Z,2.70
2022-09-05T04:26:53.446Z,2.88
2022-09-05T04:29:49.376Z,2.63
2022-09-05T04:32:36.561Z,2.40
2022-09-05T04:35:21.970Z,2.58
2022-09-05T04:38:16.461Z,2.22
2022-09-05T04:40:48.745Z,2.33
2022-09-05T04:43:18.310Z,2.40
2022-09-05T04:46:01.827Z,2.78
2022-09-05T04:48:36.549Z,2.38
2022-09-05T04:51:08.103Z,2.50
2022-09-05T04:53:59.540Z,2.90
2022-09-05T04:56:33.050Z,2.30
2022-09-05T05:01:37.919Z,2.40
2022-09-05T05:06:00.673Z,2.85
2022-09-05T05:06:19.100Z,2.05
2022-09-05T05:07:49.959Z,2.45
2022-09-05T05:11:06.179Z,2.40
2022-09-05T05:18:01.745Z,2.30
2022-09-05T05:18:12.356Z,2.05
2022-09-05T05:19:27.810Z,2.30
2022-09-05T05:21:58.178Z,2.22
2022-09-05T05:24:31.071Z,2.75
2022-09-05T05:27:07.470Z,2.35
2022-09-05T05:29:56.782Z,2.67
2022-09-05T05:32:44.979Z,2.70
2022-09-05T05:35:18.711Z,2.83
2022-09-05T05:37:47.575Z,2.42
2022-09-05T05:40:21.807Z,2.45
2022-09-05T05:42:48.783Z,2.60
2022-09-05T05:45:28.162Z,2.70
2022-09-05T05:48:03.774Z,2.70
2022-09-05T05:50:42.604Z,2.33
2022-09-05T05:53:28.960Z,2.65
2022-09-05T05:56:16.583Z,2.45
2022-09-05T05:59:13.919Z,2.50
2022-09-05T06:01:55.848Z,2.80
2022-09-05T06:04:47.045Z,2.95
2022-09-05T06:10:02.420Z,2.83
2022-09-05T06:15:03.669Z,2.90
2022-09-05T06:15:05.773Z,2.97
2022-09-05T06:17:55.447Z,2.50
2022-09-05T06:22:05.953Z,2.58
2022-09-05T06:23:50.643Z,2.88
2022-09-05T06:26:32.156Z,3.35
2022-09-05T06:29:04.777Z,2.65
2022-09-05T06:31:57.539Z,2.65
2022-09-05T06:35:01.685Z,3.67
2022-09-05T06:38:09.561Z,2.60
2022-09-05T06:40:50.954Z,2.78
2022-09-05T06:43:35.034Z,3.20
2022-09-05T06:46:32.206Z,3.25
2022-09-05T06:49:31.321Z,2.63
2022-09-05T06:52:28.658Z,2.80
2022-09-05T06:55:08.902Z,2.70
2022-09-05T06:57:53.583Z,3.03
2022-09-05T07:00:23.788Z,3.30
2022-09-05T07:03:20.540Z,3.08
2022-09-05T07:06:08.297Z,3.25
2022-09-05T07:09:08.479Z,2.95
2022-09-05T07:11:43.988Z,3.03
2022-09-05T07:14:30.448Z,2.95
2022-09-05T07:17:16.996Z,3.63
2022-09-05T07:19:56.126Z,3.67
2022-09-05T07:22:54.637Z,3.35
2022-09-05T07:25:31.561Z,3.42
2022-09-05T07:28:28.950Z,3.30
2022-09-05T07:31:04.175Z,2.92
2022-09-05T07:33:31.957Z,3.50
2022-09-05T07:36:08.859Z,3.15
2022-09-05T07:41:26.560Z,2.88
2022-09-05T07:43:59.192Z,3.30
2022-09-05T07:46:31.388Z,3.20
2022-09-05T07:49:03.168Z,3.40
2022-09-05T07:56:47.397Z,3.17
2022-09-05T07:56:59.810Z,3.10
2022-09-05T07:57:50.970Z,2.92
2022-09-05T08:00:28.992Z,3.85
2022-09-05T08:03:01.166Z,2.92
2022-09-05T08:05:36.024Z,2.75
2022-09-05T08:08:09.282Z,3.63
2022-09-05T08:11:25.007Z,2.85
2022-09-05T08:13:48.572Z,2.55
2022-09-05T08:16:22.665Z,3.05
2022-09-05T08:18:56.598Z,3.65
2022-09-05T08:21:40.030Z,3.38
2022-09-05T08:24:41.554Z,3.63
2022-09-05T08:27:17.045Z,2.78
2022-09-05T08:30:26.920Z,3.13
2022-09-05T08:32:57.528Z,2.85
2022-09-05T08:36:01.275Z,3.22
2022-09-05T08:38:38.767Z,3.38
2022-09-05T08:41:16.404Z,3.33
2022-09-05T08:46:35.891Z,3.72
2022-09-05T08:46:50.080Z,3.30
2022-09-05T08:49:54.062Z,3.20
2022-09-05T08:52:33.986Z,3.35
2022-09-05T08:55:18.594Z,3.67
2022-09-05T08:58:06.960Z,3.85
2022-09-05T09:00:42.295Z,3.33
2022-09-05T09:03:22.558Z,3.45
2022-09-05T09:06:14.216Z,3.65
2022-09-05T09:09:15.772Z,3.22
2022-09-05T09:11:53.214Z,3.33
2022-09-05T09:14:31.544Z,3.20
2022-09-05T09:17:02.338Z,3.70
2022-09-05T09:19:46.482Z,3.35
2022-09-05T09:22:33.543Z,3.33
2022-09-05T09:25:33.148Z,3.67
2022-09-05T09:28:47.246Z,3.70
2022-09-05T09:31:22.188Z,3.20
2022-09-05T09:34:27.123Z,3.53
2022-09-05T09:37:51.697Z,3.35
2022-09-05T09:40:27.178Z,3.17
2022-09-05T09:43:07.258Z,3.33
2022-09-05T09:45:45.939Z,3.55
2022-09-05T09:48:35.183Z,3.10
2022-09-05T09:51:26.987Z,3.58
2022-09-05T09:54:07.265Z,3.10
2022-09-05T09:56:55.427Z,3.10
2022-09-05T09:59:54.300Z,3.03
2022-09-05T10:05:24.042Z,2.92
2022-09-05T10:10:49.403Z,2.83
2022-09-05T10:10:49.406Z,2.50
2022-09-05T10:12:40.209Z,3.00
2022-09-05T10:15:32.290Z,3.05
2022-09-05T10:18:27.004Z,2.70
2022-09-05T10:21:28.549Z,2.72
2022-09-05T10:24:26.318Z,2.65
2022-09-05T10:27:19.212Z,2.90
2022-09-05T10:30:03.402Z,2.78
2022-09-05T10:35:08.137Z,2.88
2022-09-05T10:35:40.663Z,3.10
2022-09-05T10:38:10.948Z,2.70
2022-09-05T10:41:20.005Z,3.13
2022-09-05T10:43:33.285Z,2.92
2022-09-05T10:46:39.800Z,3.30
2022-09-05T10:49:09.147Z,3.00
2022-09-05T10:51:42.299Z,3.40
2022-09-05T10:54:41.257Z,2.70
2022-09-05T10:57:17.236Z,2.80
2022-09-05T11:02:23.800Z,2.85
2022-09-05T11:02:47.431Z,3.03
2022-09-05T11:05:17.877Z,2.72
2022-09-05T11:08:11.620Z,2.90
2022-09-05T11:10:56.822Z,2.90
2022-09-05T11:13:46.458Z,2.60
2022-09-05T11:16:28.448Z,3.00
2022-09-05T11:19:03.724Z,2.78
2022-09-05T11:21:33.163Z,2.40
2022-09-05T11:24:42.051Z,2.72
2022-09-05T11:27:41.090Z,2.70
2022-09-05T11:30:28.414Z,2.50
2022-09-05T11:39:40.999Z,2.50
2022-09-05T11:39:54.633Z,2.60
2022-09-05T11:40:07.644Z,2.55
2022-09-05T11:42:06.237Z,2.42
2022-09-05T11:44:56.973Z,2.55
2022-09-05T11:47:57.264Z,2.83
2022-09-05T11:50:41.925Z,2.70
2022-09-05T11:53:37.572Z,2.35
2022-09-05T11:56:25.488Z,2.40
2022-09-05T11:58:57.732Z,2.45
2022-09-05T12:01:44.321Z,2.78
2022-09-05T12:05:48.923Z,2.55
2022-09-05T12:08:21.321Z,2.45
2022-09-05T12:11:17.810Z,2.03
2022-09-05T12:14:21.054Z,2.65
2022-09-05T12:17:10.024Z,2.95
2022-09-05T12:19:44.689Z,2.50
2022-09-05T12:22:33.228Z,2.80
2022-09-05T12:27:37.106Z,2.92
2022-09-05T12:29:25.908Z,2.33
2022-09-05T12:32:44.545Z,2.35
2022-09-05T12:40:43.206Z,2.17
2022-09-05T12:41:31.952Z,2.30
2022-09-05T12:42:08.587Z,2.40
2022-09-05T12:42:48.341Z,2.50
2022-09-05T12:45:47.710Z,2.58
2022-09-05T12:48:38.698Z,2.55
2022-09-05T12:51:47.083Z,2.78
2022-09-05T12:54:33.505Z,2.60
2022-09-05T12:59:40.184Z,2.40
2022-09-05T13:03:05.122Z,2.53
2022-09-05T13:03:29.244Z,2.45
2022-09-05T13:05:54.410Z,2.30
2022-09-05T13:08:24.701Z,2.60
2022-09-05T13:14:50.040Z,1.95
2022-09-05T13:14:56.696Z,2.20
2022-09-05T13:16:46.236Z,2.08
2022-09-05T13:19:25.041Z,2.55
2022-09-05T13:21:55.645Z,2.05
2022-09-05T13:24:32.365Z,2.42
2022-09-05T13:27:08.697Z,2.50
2022-09-05T13:32:58.817Z,2.28
2022-09-05T13:38:08.371Z,2.42
2022-09-05T13:38:19.618Z,2.47
2022-09-05T13:39:03.017Z,2.22
2022-09-05T13:41:37.220Z,2.30
2022-09-05T13:44:25.659Z,2.28
2022-09-05T13:47:16.376Z,2.20
2022-09-05T13:50:08.794Z,2.15
2022-09-05T13:53:02.333Z,2.50
2022-09-05T13:55:44.249Z,2.15
2022-09-05T13:58:45.442Z,2.38
2022-09-05T14:02:25.942Z,2.22
2022-09-05T14:05:17.777Z,2.00
2022-09-05T14:07:51.840Z,2.35
2022-09-05T14:10:39.515Z,2.63
2022-09-05T14:13:15.221Z,2.00
2022-09-05T14:15:52.058Z,2.30
2022-09-05T14:18:30.275Z,2.33
2022-09-05T14:21:17.398Z,2.00
2022-09-05T14:23:54.037Z,2.60
2022-09-05T14:26:29.214Z,2.00
2022-09-05T14:29:15.680Z,2.08
2022-09-05T14:37:34.411Z,2.13
2022-09-05T14:37:53.023Z,1.95
2022-09-05T14:38:16.058Z,2.13
2022-09-05T14:41:20.707Z,2.10
2022-09-05T14:44:19.439Z,2.40
2022-09-05T14:47:08.536Z,2.20
2022-09-05T14:49:52.448Z,2.10
2022-09-05T14:52:24.840Z,2.20
2022-09-05T15:02:38.977Z,2.35
2022-09-05T15:02:49.860Z,2.10
2022-09-05T15:06:33.082Z,2.10
2022-09-05T15:11:25.310Z,2.00
2022-09-05T15:12:27.883Z,2.40
2022-09-05T15:14:37.084Z,2.70
2022-09-05T15:17:05.943Z,2.05
2022-09-05T15:20:05.780Z,2.58
2022-09-05T15:22:37.254Z,2.47
2022-09-05T15:25:24.161Z,2.45
2022-09-05T15:27:51.267Z,2.78
2022-09-05T15:30:35.553Z,2.35
2022-09-05T15:33:25.441Z,2.17
2022-09-05T15:35:52.671Z,2.78
2022-09-05T15:38:23.923Z,2.45
2022-09-05T15:41:25.733Z,2.78
2022-09-05T15:44:09.881Z,2.05
2022-09-05T15:46:59.700Z,2.08
2022-09-05T15:49:35.308Z,2.40
2022-09-05T15:52:07.934Z,2.40
2022-09-05T15:54:39.441Z,2.28
2022-09-05T15:57:17.633Z,2.42
2022-09-05T15:59:48.926Z,2.55
2022-09-05T16:02:25.864Z,2.58
2022-09-05T16:10:34.677Z,2.88
2022-09-05T16:10:39.977Z,2.35
2022-09-05T16:11:18.684Z,2.65
2022-09-05T16:13:53.419Z,2.22
2022-09-05T16:23:16.742Z,2.40
2022-09-05T16:23:20.434Z,2.28
2022-09-05T16:23:28.979Z,2.40
2022-09-05T16:25:24.082Z,2.05
2022-09-05T16:27:51.029Z,1.85
2022-09-05T16:30:35.589Z,2.60
2022-09-05T16:33:17.562Z,2.45
2022-09-05T16:35:57.372Z,2.72
2022-09-05T16:38:48.658Z,2.70
2022-09-05T16:41:41.226Z,2.13
2022-09-05T16:44:40.153Z,2.30
2022-09-05T16:47:23.321Z,2.30
2022-09-05T16:49:54.523Z,2.30
2022-09-05T16:52:35.763Z,2.58
2022-09-05T16:55:18.397Z,2.28
2022-09-05T16:58:14.533Z,2.78
2022-09-05T17:00:50.609Z,2.40
2022-09-05T17:03:32.458Z,2.38
2022-09-05T17:06:26.194Z,2.58
2022-09-05T17:09:12.269Z,2.22
2022-09-05T17:14:33.624Z,2.50
2022-09-05T17:17:20.149Z,2.53
2022-09-05T17:20:07.205Z,2.30
2022-09-05T17:28:43.091Z,2.85
2022-09-05T17:29:30.407Z,2.20
2022-09-05T17:29:30.888Z,2.55
2022-09-05T17:31:59.790Z,2.15
2022-09-05T17:35:17.779Z,2.25
2022-09-05T17:38:22.211Z,2.42
2022-09-05T17:41:23.864Z,2.60
2022-09-05T17:44:05.812Z,2.20
2022-09-05T17:46:35.201Z,2.58
2022-09-05T17:49:19.528Z,2.70
2022-09-05T17:52:06.596Z,2.42
2022-09-05T17:54:33.698Z,3.22
2022-09-05T17:57:28.537Z,2.70
2022-09-05T17:59:56.520Z,2.40
2022-09-05T18:02:24.017Z,3.00
2022-09-05T18:04:52.470Z,2.92
2022-09-05T18:07:35.242Z,2.22
2022-09-05T18:10:12.793Z,2.70
2022-09-05T18:15:36.135Z,2.67
2022-09-05T18:18:05.908Z,2.80
2022-09-05T18:20:47.325Z,2.45
2022-09-05T18:23:39.097Z,2.58
2022-09-05T18:26:24.490Z,2.58
2022-09-05T18:29:57.254Z,2.88
2022-09-05T18:32:11.638Z,2.65
2022-09-05T18:34:38.330Z,2.60
2022-09-05T18:37:35.965Z,2.60
2022-09-05T18:40:08.645Z,2.70
2022-09-05T18:42:52.618Z,2.50
2022-09-05T18:45:28.440Z,2.75
2022-09-05T18:48:02.861Z,2.45
2022-09-05T18:50:34.244Z,2.97
2022-09-05T18:53:10.460Z,2.83
2022-09-05T18:56:10.185Z,3.10
2022-09-05T18:59:09.571Z,3.15
2022-09-05T19:01:48.798Z,3.10
2022-09-05T19:04:40.904Z,3.10
2022-09-05T19:07:22.394Z,3.10
2022-09-05T19:09:59.125Z,2.90
2022-09-05T19:12:33.544Z,3.00
2022-09-05T19:15:18.090Z,2.83
2022-09-05T19:18:22.814Z,2.90
2022-09-05T19:21:17.822Z,2.70
2022-09-05T19:23:55.535Z,2.65
2022-09-05T19:26:23.503Z,2.40
2022-09-05T19:32:59.820Z,2.75
2022-09-05T19:37:05.140Z,2.70
2022-09-05T19:37:08.360Z,2.95
2022-09-05T19:37:26.124Z,2.78
2022-09-05T19:46:50.694Z,2.92
2022-09-05T19:47:27.259Z,2.88
2022-09-05T19:47:35.724Z,3.17
2022-09-05T19:50:54.182Z,3.20
2022-09-05T19:53:21.242Z,3.08
2022-09-05T19:55:48.405Z,3.67
2022-09-05T19:58:21.261Z,3.35
2022-09-05T20:01:01.266Z,3.20
2022-09-05T20:03:35.500Z,3.10
2022-09-05T20:06:32.186Z,3.03
2022-09-05T20:09:21.434Z,2.80
2022-09-05T20:11:49.714Z,3.13
2022-09-05T20:14:30.384Z,3.38
2022-09-05T20:17:01.443Z,3.03
2022-09-05T20:19:29.910Z,3.40
2022-09-05T20:22:46.701Z,3.42
2022-09-05T20:24:52.938Z,3.40
2022-09-05T20:27:27.192Z,3.03
2022-09-05T20:30:02.520Z,3.10
2022-09-05T20:32:40.511Z,3.17
2022-09-05T20:38:09.079Z,3.67
2022-09-05T20:43:15.055Z,3.53
2022-09-05T20:43:23.232Z,3.33
2022-09-05T20:43:52.760Z,2.78
2022-09-05T20:49:43.522Z,3.42
2022-09-05T20:54:20.747Z,2.80
2022-09-05T20:54:28.653Z,3.25
2022-09-05T20:55:42.061Z,3.00
2022-09-05T20:58:15.251Z,3.25
2022-09-05T21:01:21.760Z,3.90
2022-09-05T21:03:45.534Z,3.13
2022-09-05T21:06:36.473Z,3.20
2022-09-05T21:09:23.839Z,3.33
2022-09-05T21:11:52.760Z,3.35
2022-09-05T21:14:21.657Z,3.35
2022-09-05T21:16:57.508Z,3.50
2022-09-05T21:19:31.445Z,3.67
2022-09-05T21:22:25.008Z,3.38
2022-09-05T21:25:15.349Z,3.53
2022-09-05T21:27:54.196Z,3.42
2022-09-05T21:30:30.808Z,3.60
2022-09-05T21:33:18.529Z,3.15
2022-09-05T21:35:48.871Z,3.78
2022-09-05T21:38:32.395Z,3.67
2022-09-05T21:41:03.649Z,3.67
2022-09-05T21:47:44.820Z,3.72
2022-09-05T21:47:48.112Z,3.50
2022-09-05T21:49:07.748Z,4.20
2022-09-05T21:51:34.925Z,3.63
2022-09-05T21:57:16.875Z,3.50
2022-09-05T21:59:29.385Z,4.00
2022-09-05T21:59:55.559Z,3.45
2022-09-05T22:02:23.714Z,4.40
2022-09-05T22:05:03.116Z,4.50
2022-09-05T22:07:34.532Z,4.25
2022-09-05T22:10:06.231Z,4.03
2022-09-05T22:12:38.803Z,3.67
2022-09-05T22:15:27.168Z,3.55
2022-09-05T22:18:07.677Z,3.97
2022-09-05T22:20:44.826Z,3.70
2022-09-05T22:23:11.923Z,3.75
2022-09-05T22:25:39.307Z,3.60
2022-09-05T22:28:12.791Z,3.97
2022-09-05T22:30:39.763Z,4.40
2022-09-05T22:33:07.341Z,4.18
2022-09-05T22:35:35.784Z,3.90
2022-09-05T22:38:10.881Z,4.18
2022-09-05T22:40:39.677Z,4.17
2022-09-05T22:44:59.283Z,3.60
2022-09-05T22:47:29.716Z,3.88
2022-09-05T22:49:56.683Z,4.00
2022-09-05T22:52:23.226Z,4.18
2022-09-05T22:54:49.746Z,3.65
2022-09-05T22:57:16.246Z,4.15
2022-09-05T22:59:42.749Z,4.07
2022-09-05T23:02:09.238Z,4.05
2022-09-05T23:04:35.808Z,3.72
2022-09-05T23:07:03.064Z,4.03
2022-09-05T23:09:30.283Z,4.50
2022-09-05T23:11:56.758Z,3.83
2022-09-05T23:14:23.290Z,4.55
2022-09-05T23:16:49.858Z,4.82
2022-09-05T23:19:16.398Z,3.90
2022-09-05T23:21:42.942Z,4.53
2022-09-05T23:24:09.474Z,4.45
2022-09-05T23:26:35.970Z,4.28
2022-09-05T23:29:02.570Z,4.60
2022-09-05T23:31:29.174Z,4.57
2022-09-05T23:33:58.053Z,4.68
2022-09-05T23:36:24.627Z,4.70
2022-09-05T23:38:51.264Z,4.50
2022-09-05T23:41:17.832Z,4.57
2022-09-05T23:43:44.379Z,4.63
2022-09-05T23:46:11.389Z,5.00
2022-09-05T23:48:38.067Z,5.18
2022-09-05T23:51:09.891Z,5.25
2022-09-05T23:53:37.137Z,5.07
2022-09-05T23:56:06.764Z,4.32
2022-09-05T23:58:34.459Z,5.07
